createdAt,value
2023-02-17T00:01:37.149Z,102185.03
2023-02-17T00:04:05.221Z,102188.72
2023-02-17T00:06:33.162Z,102174.72
2023-02-17T00:09:02.111Z,102189.25
2023-02-17T00:11:30.336Z,102189.94
2023-02-17T00:13:58.242Z,102194.47
2023-02-17T00:16:29.012Z,102194.72
2023-02-17T00:19:01.936Z,102191.28
2023-02-17T00:21:32.110Z,102190.56
2023-02-17T00:24:00.646Z,102188.72
2023-02-17T00:26:28.878Z,102182.28
2023-02-17T00:28:58.793Z,102184.50
2023-02-17T00:31:26.867Z,102190.28
2023-02-17T00:33:56.212Z,102189.31
2023-02-17T00:36:25.771Z,102189.66
2023-02-17T00:38:56.053Z,102201.06
2023-02-17T00:41:25.925Z,102189.50
2023-02-17T00:43:54.371Z,102187.09
2023-02-17T00:46:23.939Z,102188.44
2023-02-17T00:48:53.860Z,102183.88
2023-02-17T00:51:22.308Z,102183.94
2023-02-17T00:53:51.065Z,102187.13
2023-02-17T00:56:19.164Z,102194.00
2023-02-17T00:58:47.093Z,102189.31
2023-02-17T01:01:15.292Z,102183.88
2023-02-17T01:03:44.123Z,102184.97
2023-02-17T01:06:28.274Z,102182.59
2023-02-17T01:08:56.198Z,102180.34
2023-02-17T01:11:27.313Z,102184.38
2023-02-17T01:13:56.678Z,102177.91
2023-02-17T01:16:30.585Z,102178.44
2023-02-17T01:19:00.372Z,102181.47
2023-02-17T01:21:30.139Z,102177.97
2023-02-17T01:24:00.877Z,102180.88
2023-02-17T01:26:31.385Z,102180.50
2023-02-17T01:28:59.545Z,102169.38
2023-02-17T01:31:28.363Z,102176.53
2023-02-17T01:33:58.973Z,102172.59
2023-02-17T01:36:27.565Z,102174.06
2023-02-17T01:38:55.617Z,102170.03
2023-02-17T01:41:27.289Z,102175.72
2023-02-17T01:44:13.676Z,102172.16
2023-02-17T01:46:44.817Z,102157.66
2023-02-17T01:49:37.114Z,102166.09
2023-02-17T01:52:18.784Z,102150.47
2023-02-17T01:54:55.684Z,102170.75
2023-02-17T01:57:27.864Z,102175.03
2023-02-17T01:59:57.639Z,102169.50
2023-02-17T02:02:26.025Z,102151.53
2023-02-17T02:04:54.469Z,102155.56
2023-02-17T02:07:37.363Z,102154.91
2023-02-17T02:10:06.018Z,102153.38
2023-02-17T02:12:39.099Z,102152.50
2023-02-17T02:15:13.824Z,102138.56
2023-02-17T02:18:07.549Z,102145.13
2023-02-17T02:21:18.612Z,102147.69
2023-02-17T02:23:53.277Z,102142.09
2023-02-17T02:27:02.341Z,102134.69
2023-02-17T02:29:45.734Z,102134.88
2023-02-17T02:32:50.313Z,102134.53
2023-02-17T02:35:43.824Z,102149.13
2023-02-17T02:38:29.632Z,102137.97
2023-02-17T02:41:08.528Z,102148.38
2023-02-17T02:43:37.977Z,102141.34
2023-02-17T02:46:06.569Z,102154.88
2023-02-17T02:48:36.092Z,102151.28
2023-02-17T02:51:32.342Z,102151.19
2023-02-17T02:54:18.280Z,102145.53
2023-02-17T02:57:19.693Z,102154.03
2023-02-17T03:00:06.551Z,102149.94
2023-02-17T03:02:52.835Z,102156.50
2023-02-17T03:06:05.640Z,102139.25
2023-02-17T03:08:53.868Z,102145.97
2023-02-17T03:11:35.355Z,102140.25
2023-02-17T03:14:13.969Z,102143.19
2023-02-17T03:16:43.719Z,102144.84
2023-02-17T03:19:14.034Z,102137.06
2023-02-17T03:21:49.125Z,102138.03
2023-02-17T03:24:18.390Z,102142.75
2023-02-17T03:26:46.511Z,102150.56
2023-02-17T03:29:14.592Z,102156.19
2023-02-17T03:31:43.007Z,102153.06
2023-02-17T03:34:11.099Z,102152.41
2023-02-17T03:36:38.972Z,102157.94
2023-02-17T03:39:06.991Z,102160.53
2023-02-17T03:41:34.951Z,102159.31
2023-02-17T03:44:02.857Z,102162.81
2023-02-17T03:46:30.812Z,102160.50
2023-02-17T03:48:58.735Z,102156.38
2023-02-17T03:51:26.697Z,102160.03
2023-02-17T03:53:54.624Z,102156.53
2023-02-17T03:56:22.665Z,102163.56
2023-02-17T03:58:50.877Z,102160.91
2023-02-17T04:01:18.991Z,102159.50
2023-02-17T04:03:47.052Z,102162.53
2023-02-17T04:06:15.315Z,102170.53
2023-02-17T04:08:43.347Z,102161.63
2023-02-17T04:11:11.329Z,102173.84
2023-02-17T04:13:40.297Z,102170.75
2023-02-17T04:16:10.110Z,102178.59
2023-02-17T04:18:38.967Z,102179.44
2023-02-17T04:21:07.325Z,102178.75
2023-02-17T04:23:37.301Z,102183.41
2023-02-17T04:26:07.348Z,102186.84
2023-02-17T04:28:38.466Z,102178.09
2023-02-17T04:31:07.301Z,102172.22
2023-02-17T04:33:35.659Z,102173.63
2023-02-17T04:36:04.156Z,102177.47
2023-02-17T04:38:33.985Z,102176.16
2023-02-17T04:41:01.981Z,102168.81
2023-02-17T04:43:30.571Z,102172.94
2023-02-17T04:45:59.121Z,102177.59
2023-02-17T04:48:27.277Z,102169.88
2023-02-17T04:50:55.298Z,102170.03
2023-02-17T04:53:23.448Z,102166.81
2023-02-17T04:55:53.621Z,102166.13
2023-02-17T04:58:22.277Z,102163.31
2023-02-17T05:00:51.066Z,102163.88
2023-02-17T05:03:19.679Z,102171.81
2023-02-17T05:05:47.938Z,102173.66
2023-02-17T05:08:16.294Z,102174.66
2023-02-17T05:10:44.490Z,102173.63
2023-02-17T05:13:12.588Z,102178.63
2023-02-17T05:15:40.658Z,102182.53
2023-02-17T05:18:08.810Z,102184.41
2023-02-17T05:20:36.876Z,102188.53
2023-02-17T05:23:05.199Z,102176.78
2023-02-17T05:25:33.403Z,102181.91
2023-02-17T05:28:02.871Z,102183.00
2023-02-17T05:30:32.644Z,102181.34
2023-02-17T05:33:01.189Z,102190.38
2023-02-17T05:35:29.188Z,102199.44
2023-02-17T05:37:57.257Z,102193.66
2023-02-17T05:40:25.343Z,102195.41
2023-02-17T05:42:53.312Z,102200.88
2023-02-17T05:45:21.373Z,102198.19
2023-02-17T05:47:49.441Z,102189.34
2023-02-17T05:50:17.592Z,102206.84
2023-02-17T05:52:45.696Z,102202.44
2023-02-17T05:55:14.217Z,102206.78
2023-02-17T05:57:42.258Z,102210.03
2023-02-17T06:00:10.926Z,102214.66
2023-02-17T06:02:42.150Z,102222.88
2023-02-17T06:05:10.639Z,102222.41
2023-02-17T06:07:38.928Z,102230.09
2023-02-17T06:10:07.763Z,102234.88
2023-02-17T06:12:36.051Z,102235.47
2023-02-17T06:15:04.288Z,102237.22
2023-02-17T06:17:32.424Z,102237.84
2023-02-17T06:20:00.486Z,102246.56
2023-02-17T06:22:28.606Z,102242.31
2023-02-17T06:24:56.655Z,102252.25
2023-02-17T06:27:25.042Z,102253.84
2023-02-17T06:29:53.122Z,102248.94
2023-02-17T06:32:21.289Z,102253.38
2023-02-17T06:34:49.438Z,102257.94
2023-02-17T06:37:17.527Z,102257.00
2023-02-17T06:39:45.628Z,102245.28
2023-02-17T06:42:13.730Z,102252.25
2023-02-17T06:44:41.894Z,102253.00
2023-02-17T06:47:10.070Z,102261.84
2023-02-17T06:49:40.465Z,102263.34
2023-02-17T06:52:08.978Z,102265.19
2023-02-17T06:54:37.053Z,102252.13
2023-02-17T06:57:05.258Z,102254.97
2023-02-17T06:59:34.048Z,102260.31
2023-02-17T07:02:02.781Z,102264.31
2023-02-17T07:04:31.307Z,102261.75
2023-02-17T07:06:59.496Z,102268.19
2023-02-17T07:09:27.518Z,102275.53
2023-02-17T07:11:55.684Z,102267.47
2023-02-17T07:14:25.054Z,102264.75
2023-02-17T07:16:53.909Z,102272.25
2023-02-17T07:19:21.990Z,102271.53
2023-02-17T07:21:50.100Z,102266.09
2023-02-17T07:24:18.406Z,102272.31
2023-02-17T07:26:46.576Z,102263.28
2023-02-17T07:29:14.669Z,102268.28
2023-02-17T07:31:42.717Z,102264.66
2023-02-17T07:34:10.873Z,102268.53
2023-02-17T07:36:39.086Z,102276.78
2023-02-17T07:39:07.552Z,102281.78
2023-02-17T07:41:35.651Z,102268.09
2023-02-17T07:44:10.759Z,102276.16
2023-02-17T07:46:42.774Z,102275.31
2023-02-17T07:49:11.283Z,102275.09
2023-02-17T07:51:39.451Z,102274.50
2023-02-17T07:54:07.486Z,102267.88
2023-02-17T07:56:35.796Z,102277.13
2023-02-17T07:59:03.876Z,102273.50
2023-02-17T08:01:31.973Z,102272.53
2023-02-17T08:04:00.182Z,102278.84
2023-02-17T08:06:28.484Z,102276.06
2023-02-17T08:09:15.951Z,102264.03
2023-02-17T08:12:03.369Z,102271.81
2023-02-17T08:14:33.813Z,102276.56
2023-02-17T08:17:02.042Z,102270.13
2023-02-17T08:19:46.333Z,102263.56
2023-02-17T08:22:16.893Z,102275.44
2023-02-17T08:24:45.182Z,102271.97
2023-02-17T08:27:15.056Z,102266.34
2023-02-17T08:29:44.168Z,102278.09
2023-02-17T08:32:13.335Z,102273.53
2023-02-17T08:34:41.606Z,102263.38
2023-02-17T08:37:10.849Z,102277.19
2023-02-17T08:39:38.937Z,102271.69
2023-02-17T08:42:07.112Z,102274.34
2023-02-17T08:44:36.742Z,102275.25
2023-02-17T08:47:05.914Z,102271.44
2023-02-17T08:49:33.889Z,102282.47
2023-02-17T08:52:01.846Z,102282.19
2023-02-17T08:54:29.929Z,102286.59
2023-02-17T08:56:58.901Z,102284.84
2023-02-17T08:59:26.905Z,102280.25
2023-02-17T09:01:55.907Z,102278.16
2023-02-17T09:04:23.988Z,102274.13
2023-02-17T09:06:56.307Z,102281.63
2023-02-17T09:09:27.102Z,102276.88
2023-02-17T09:11:57.249Z,102286.38
2023-02-17T09:14:25.480Z,102282.97
2023-02-17T09:16:54.897Z,102280.81
2023-02-17T09:19:23.815Z,102284.59
2023-02-17T09:21:52.146Z,102280.66
2023-02-17T09:24:20.117Z,102283.94
2023-02-17T09:26:48.144Z,102277.56
2023-02-17T09:29:16.172Z,102262.47
2023-02-17T09:31:45.885Z,102268.16
2023-02-17T09:34:15.011Z,102276.09
2023-02-17T09:36:43.394Z,102274.22
2023-02-17T09:39:13.818Z,102278.84
2023-02-17T09:41:50.152Z,102279.03
2023-02-17T09:44:23.445Z,102276.88
2023-02-17T09:47:03.188Z,102270.00
2023-02-17T09:49:48.439Z,102272.00
2023-02-17T09:52:49.597Z,102264.84
2023-02-17T09:55:26.968Z,102268.72
2023-02-17T09:58:00.193Z,102265.94
2023-02-17T10:00:32.856Z,102269.88
2023-02-17T10:03:15.356Z,102274.84
2023-02-17T10:06:05.852Z,102267.28
2023-02-17T10:08:45.820Z,102270.31
2023-02-17T10:11:29.612Z,102272.47
2023-02-17T10:14:02.786Z,102269.97
2023-02-17T10:16:34.578Z,102272.84
2023-02-17T10:19:16.644Z,102266.69
2023-02-17T10:22:12.766Z,102272.13
2023-02-17T10:24:40.774Z,102264.34
2023-02-17T10:27:36.006Z,102270.28
2023-02-17T10:30:19.429Z,102267.00
2023-02-17T10:33:12.176Z,102262.00
2023-02-17T10:35:50.752Z,102260.72
2023-02-17T10:38:24.650Z,102255.72
2023-02-17T10:40:56.179Z,102258.38
2023-02-17T10:43:30.529Z,102258.28
2023-02-17T10:46:01.234Z,102253.63
2023-02-17T10:48:42.895Z,102252.91
2023-02-17T10:51:16.324Z,102237.19
2023-02-17T10:53:48.642Z,102241.38
2023-02-17T10:56:47.492Z,102234.56
2023-02-17T10:59:28.175Z,102235.16
2023-02-17T11:02:23.443Z,102237.00
2023-02-17T11:04:56.822Z,102228.72
2023-02-17T11:07:33.689Z,102219.44
2023-02-17T11:10:05.273Z,102208.13
2023-02-17T11:12:42.414Z,102205.63
2023-02-17T11:15:18.584Z,102198.44
2023-02-17T11:17:48.044Z,102191.13
2023-02-17T11:20:16.043Z,102187.56
2023-02-17T11:23:05.584Z,102178.72
2023-02-17T11:25:37.973Z,102175.34
2023-02-17T11:28:12.677Z,102175.03
2023-02-17T11:30:49.028Z,102180.31
2023-02-17T11:33:29.418Z,102173.47
2023-02-17T11:35:58.569Z,102177.25
2023-02-17T11:38:42.728Z,102161.59
2023-02-17T11:41:11.346Z,102156.38
2023-02-17T11:43:40.307Z,102157.97
2023-02-17T11:46:20.037Z,102156.59
2023-02-17T11:49:02.569Z,102152.75
2023-02-17T11:52:01.172Z,102151.06
2023-02-17T11:55:08.019Z,102146.13
2023-02-17T11:57:45.291Z,102149.56
2023-02-17T12:01:04.219Z,102133.91
2023-02-17T12:04:05.025Z,102142.13
2023-02-17T12:06:32.898Z,102140.44
2023-02-17T12:09:08.236Z,102124.22
2023-02-17T12:11:44.702Z,102131.81
2023-02-17T12:14:33.604Z,102119.94
2023-02-17T12:17:32.140Z,102117.28
2023-02-17T12:20:29.125Z,102113.84
2023-02-17T12:22:59.744Z,102123.94
2023-02-17T12:25:34.312Z,102117.72
2023-02-17T12:28:46.504Z,102106.16
2023-02-17T12:31:46.998Z,102113.78
2023-02-17T12:34:29.894Z,102108.50
2023-02-17T12:36:59.566Z,102108.22
2023-02-17T12:39:50.663Z,102099.56
2023-02-17T12:42:30.557Z,102093.56
2023-02-17T12:45:06.237Z,102092.22
2023-02-17T12:48:04.717Z,102088.88
2023-02-17T12:50:52.365Z,102082.91
2023-02-17T12:53:41.321Z,102081.06
2023-02-17T12:56:31.737Z,102072.63
2023-02-17T12:59:23.134Z,102076.59
2023-02-17T13:01:59.307Z,102076.31
2023-02-17T13:04:30.354Z,102063.44
2023-02-17T13:07:04.553Z,102056.97
2023-02-17T13:09:37.001Z,102054.34
2023-02-17T13:12:25.196Z,102052.41
2023-02-17T13:14:56.272Z,102048.28
2023-02-17T13:17:43.131Z,102049.94
2023-02-17T13:20:11.322Z,102039.50
2023-02-17T13:22:41.598Z,102040.44
2023-02-17T13:25:26.342Z,102030.41
2023-02-17T13:27:54.642Z,102024.16
2023-02-17T13:30:22.898Z,102019.25
2023-02-17T13:33:20.487Z,102027.13
2023-02-17T13:35:49.458Z,102015.59
2023-02-17T13:38:32.410Z,102014.53
2023-02-17T13:41:01.890Z,102014.63
2023-02-17T13:43:31.747Z,102021.63
2023-02-17T13:46:05.811Z,102020.75
2023-02-17T13:48:36.033Z,102004.66
2023-02-17T13:51:24.602Z,102014.63
2023-02-17T13:53:53.017Z,102013.50
2023-02-17T13:56:31.257Z,102010.41
2023-02-17T13:59:19.097Z,102010.34
2023-02-17T14:01:47.778Z,102005.28
2023-02-17T14:04:38.904Z,102000.22
2023-02-17T14:07:07.177Z,102006.06
2023-02-17T14:09:36.000Z,102002.44
2023-02-17T14:12:07.790Z,102003.28
2023-02-17T14:14:38.689Z,101999.91
2023-02-17T14:17:14.314Z,101994.84
2023-02-17T14:19:47.998Z,101998.38
2023-02-17T14:22:29.162Z,102005.44
2023-02-17T14:25:03.481Z,102001.63
2023-02-17T14:27:51.923Z,102001.59
2023-02-17T14:30:37.611Z,102000.69
2023-02-17T14:33:21.193Z,101994.09
2023-02-17T14:35:57.204Z,101995.34
2023-02-17T14:38:32.546Z,101982.88
2023-02-17T14:41:01.401Z,102008.25
2023-02-17T14:43:30.156Z,101996.06
2023-02-17T14:45:58.707Z,101997.13
2023-02-17T14:48:28.012Z,101996.50
2023-02-17T14:50:57.945Z,101997.59
2023-02-17T14:53:28.098Z,102004.91
2023-02-17T14:56:03.199Z,102007.06
2023-02-17T14:58:31.932Z,101999.00
2023-02-17T15:01:00.944Z,102013.78
2023-02-17T15:03:29.112Z,102003.56
2023-02-17T15:05:57.843Z,102007.84
2023-02-17T15:08:32.872Z,101996.72
2023-02-17T15:11:02.780Z,101999.03
2023-02-17T15:13:32.313Z,102000.69
2023-02-17T15:16:00.866Z,102001.13
2023-02-17T15:18:29.141Z,102002.75
2023-02-17T15:20:57.491Z,102003.91
2023-02-17T15:23:26.637Z,102010.00
2023-02-17T15:25:56.313Z,102005.34
2023-02-17T15:28:24.508Z,102001.16
2023-02-17T15:30:55.113Z,102004.88
2023-02-17T15:33:24.943Z,101996.81
2023-02-17T15:35:54.871Z,101995.47
2023-02-17T15:38:24.509Z,101986.41
2023-02-17T15:40:52.698Z,101982.22
2023-02-17T15:43:23.313Z,101979.31
2023-02-17T15:45:51.567Z,101988.00
2023-02-17T15:48:24.375Z,101990.44
2023-02-17T15:50:53.849Z,101986.00
2023-02-17T15:53:22.494Z,101983.47
2023-02-17T15:55:52.653Z,101986.88
2023-02-17T15:58:23.272Z,101987.97
2023-02-17T16:00:51.532Z,101984.31
2023-02-17T16:03:19.804Z,101990.69
2023-02-17T16:05:48.317Z,101983.59
2023-02-17T16:08:16.653Z,101987.94
2023-02-17T16:10:47.206Z,101997.56
2023-02-17T16:13:19.855Z,101993.56
2023-02-17T16:15:49.189Z,101993.47
2023-02-17T16:18:22.829Z,101988.41
2023-02-17T16:20:52.305Z,101997.50
2023-02-17T16:23:20.568Z,101993.81
2023-02-17T16:25:50.526Z,101992.34
2023-02-17T16:28:22.847Z,102005.03
2023-02-17T16:30:51.082Z,102004.84
2023-02-17T16:33:19.444Z,102014.03
2023-02-17T16:35:51.035Z,102019.75
2023-02-17T16:38:23.215Z,102005.00
2023-02-17T16:40:53.339Z,102016.56
2023-02-17T16:43:25.578Z,102020.25
2023-02-17T16:45:56.963Z,102020.25
2023-02-17T16:48:28.219Z,102023.78
2023-02-17T16:50:56.564Z,102035.03
2023-02-17T16:53:24.602Z,102031.34
2023-02-17T16:55:55.500Z,102040.22
2023-02-17T16:58:26.384Z,102038.22
2023-02-17T17:00:56.038Z,102040.91
2023-02-17T17:03:24.096Z,102050.16
2023-02-17T17:05:53.331Z,102040.59
2023-02-17T17:08:23.466Z,102045.72
2023-02-17T17:10:51.532Z,102056.97
2023-02-17T17:13:19.618Z,102044.66
2023-02-17T17:15:47.686Z,102058.50
2023-02-17T17:18:21.469Z,102060.34
2023-02-17T17:20:50.352Z,102062.00
2023-02-17T17:23:19.325Z,102060.97
2023-02-17T17:25:48.813Z,102068.00
2023-02-17T17:28:19.032Z,102070.91
2023-02-17T17:30:47.813Z,102064.34
2023-02-17T17:33:16.525Z,102073.97
2023-02-17T17:35:44.504Z,102075.72
2023-02-17T17:38:15.790Z,102083.41
2023-02-17T17:40:53.585Z,102082.59
2023-02-17T17:43:23.673Z,102084.34
2023-02-17T17:45:52.710Z,102087.13
2023-02-17T17:48:21.598Z,102089.03
2023-02-17T17:50:50.120Z,102094.69
2023-02-17T17:53:18.292Z,102099.09
2023-02-17T17:55:46.974Z,102110.63
2023-02-17T17:58:16.451Z,102113.94
2023-02-17T18:00:44.632Z,102110.72
2023-02-17T18:03:12.832Z,102115.31
2023-02-17T18:05:40.911Z,102111.03
2023-02-17T18:08:09.709Z,102121.59
2023-02-17T18:10:40.687Z,102114.63
2023-02-17T18:13:11.016Z,102110.00
2023-02-17T18:15:41.698Z,102118.50
2023-02-17T18:18:10.967Z,102109.09
2023-02-17T18:20:39.082Z,102111.13
2023-02-17T18:23:07.074Z,102119.66
2023-02-17T18:25:35.242Z,102114.28
2023-02-17T18:28:03.508Z,102120.66
2023-02-17T18:30:31.642Z,102125.59
2023-02-17T18:32:59.737Z,102130.31
2023-02-17T18:35:27.806Z,102138.66
2023-02-17T18:37:55.923Z,102132.06
2023-02-17T18:40:24.064Z,102128.53
2023-02-17T18:42:52.052Z,102127.13
2023-02-17T18:45:20.146Z,102127.94
2023-02-17T18:47:48.485Z,102136.59
2023-02-17T18:50:16.633Z,102132.75
2023-02-17T18:52:44.803Z,102138.50
2023-02-17T18:55:13.858Z,102130.91
2023-02-17T18:57:42.394Z,102136.69
2023-02-17T19:00:13.420Z,102139.56
2023-02-17T19:02:41.784Z,102143.56
2023-02-17T19:05:12.006Z,102149.38
2023-02-17T19:07:39.897Z,102150.03
2023-02-17T19:10:08.622Z,102151.94
2023-02-17T19:12:38.401Z,102161.72
2023-02-17T19:15:21.617Z,102163.91
2023-02-17T19:17:51.290Z,102158.59
2023-02-17T19:20:19.308Z,102164.50
2023-02-17T19:22:47.362Z,102162.28
2023-02-17T19:25:15.443Z,102158.31
2023-02-17T19:27:43.609Z,102158.03
2023-02-17T19:30:12.536Z,102157.34
2023-02-17T19:32:41.005Z,102168.53
2023-02-17T19:35:11.585Z,102164.66
2023-02-17T19:37:39.900Z,102158.25
2023-02-17T19:40:08.632Z,102156.38
2023-02-17T19:42:37.381Z,102157.38
2023-02-17T19:45:06.513Z,102168.31
2023-02-17T19:47:34.524Z,102156.34
2023-02-17T19:50:02.633Z,102157.03
2023-02-17T19:52:30.628Z,102156.78
2023-02-17T19:54:58.624Z,102166.66
2023-02-17T19:57:26.614Z,102157.03
2023-02-17T19:59:55.030Z,102156.69
2023-02-17T20:02:23.191Z,102152.34
2023-02-17T20:04:53.205Z,102152.19
2023-02-17T20:07:21.345Z,102154.66
2023-02-17T20:09:49.428Z,102151.53
2023-02-17T20:12:22.038Z,102155.66
2023-02-17T20:14:50.033Z,102146.56
2023-02-17T20:17:18.045Z,102155.88
2023-02-17T20:19:46.117Z,102164.22
2023-02-17T20:22:14.379Z,102167.22
2023-02-17T20:24:43.004Z,102182.16
2023-02-17T20:27:11.178Z,102185.22
2023-02-17T20:29:39.326Z,102170.97
2023-02-17T20:32:08.795Z,102180.13
2023-02-17T20:34:39.714Z,102167.66
2023-02-17T20:37:09.491Z,102169.22
2023-02-17T20:39:39.008Z,102175.03
2023-02-17T20:42:07.271Z,102180.19
2023-02-17T20:44:35.252Z,102175.09
2023-02-17T20:47:03.619Z,102176.91
2023-02-17T20:49:31.553Z,102173.31
2023-02-17T20:51:59.406Z,102174.56
2023-02-17T20:54:27.387Z,102170.97
2023-02-17T20:56:58.294Z,102171.25
2023-02-17T20:59:26.282Z,102162.00
2023-02-17T21:01:54.238Z,102163.22
2023-02-17T21:04:22.036Z,102161.88
2023-02-17T21:06:50.655Z,102173.44
2023-02-17T21:09:19.402Z,102167.75
2023-02-17T21:11:47.897Z,102164.19
2023-02-17T21:14:15.964Z,102149.03
2023-02-17T21:16:44.155Z,102152.81
2023-02-17T21:19:12.024Z,102163.94
2023-02-17T21:21:41.123Z,102166.81
2023-02-17T21:24:09.076Z,102153.47
2023-02-17T21:26:37.025Z,102156.91
2023-02-17T21:29:05.406Z,102157.06
2023-02-17T21:31:33.597Z,102155.31
2023-02-17T21:34:01.543Z,102171.09
2023-02-17T21:36:29.658Z,102167.66
2023-02-17T21:38:58.042Z,102164.56
2023-02-17T21:41:28.113Z,102165.72
2023-02-17T21:44:15.019Z,102155.09
2023-02-17T21:46:43.553Z,102175.78
2023-02-17T21:49:12.393Z,102167.16
2023-02-17T21:51:41.377Z,102162.56
2023-02-17T21:54:10.122Z,102168.97
2023-02-17T21:56:38.999Z,102171.47
2023-02-17T21:59:07.840Z,102171.63
2023-02-17T22:01:35.728Z,102174.66
2023-02-17T22:04:03.903Z,102176.44
2023-02-17T22:06:36.108Z,102166.63
2023-02-17T22:09:07.072Z,102168.84
2023-02-17T22:11:39.318Z,102169.81
2023-02-17T22:14:11.579Z,102169.63
2023-02-17T22:16:39.704Z,102161.97
2023-02-17T22:19:11.149Z,102170.72
2023-02-17T22:21:39.149Z,102165.19
2023-02-17T22:24:07.383Z,102166.31
2023-02-17T22:26:35.353Z,102158.03
2023-02-17T22:29:03.993Z,102157.69
2023-02-17T22:31:34.108Z,102157.22
2023-02-17T22:34:04.942Z,102161.28
2023-02-17T22:36:35.206Z,102153.47
2023-02-17T22:39:05.331Z,102155.00
2023-02-17T22:41:35.097Z,102140.56
2023-02-17T22:44:03.899Z,102144.69
2023-02-17T22:46:32.070Z,102147.09
2023-02-17T22:49:00.332Z,102155.94
2023-02-17T22:51:35.909Z,102159.03
2023-02-17T22:54:05.129Z,102170.81
2023-02-17T22:56:33.586Z,102169.41
2023-02-17T22:59:03.987Z,102166.63
2023-02-17T23:01:34.187Z,102175.34
2023-02-17T23:04:03.026Z,102171.97
2023-02-17T23:06:33.896Z,102166.47
2023-02-17T23:09:03.270Z,102148.13
2023-02-17T23:11:50.081Z,102169.03
2023-02-17T23:14:39.916Z,102164.75
2023-02-17T23:17:11.470Z,102166.25
2023-02-17T23:19:40.945Z,102158.69
2023-02-17T23:22:12.297Z,102170.34
2023-02-17T23:24:40.212Z,102158.00
2023-02-17T23:27:08.513Z,102155.94
2023-02-17T23:29:38.182Z,102150.91
2023-02-17T23:32:06.433Z,102159.06
2023-02-17T23:34:34.453Z,102156.16
2023-02-17T23:37:02.336Z,102140.84
2023-02-17T23:39:30.255Z,102152.66
2023-02-17T23:41:58.087Z,102148.66
2023-02-17T23:44:25.865Z,102144.31
2023-02-17T23:46:53.768Z,102144.59
2023-02-17T23:49:21.677Z,102148.94
2023-02-17T23:51:50.010Z,102149.63
2023-02-17T23:54:17.926Z,102154.50
2023-02-17T23:56:45.808Z,102149.22
2023-02-17T23:59:13.864Z,102148.41
